CCR6 weather

Creemore Airport
Creemore, Ontario, Canada

Public forecast

Using degrees Celsius for public forecast. Weather courtesy of forecast.io.

METAR (pilot weather report)

Closest report is CFB Borden, 10.5 nm (19.5 km) ESE. Retrieved 2019/05/22 18:15 UTC (27 minutes ago):

CYBN 221815Z AUTO 11014KT 9SM FEW077 15/03 A3017

TAF (pilot weather forecast)

Closest forecast is CFB Borden, 10.5 nm (19.5 km) ESE. Retrieved 2019/05/22 18:33 UTC (9 minutes ago):

TAF TAF CYBN 221730Z 2218/2306 15012G22KT P6SM FEW090 OVC120 TEMPO 2218/2220 P6SM -SHRA OVC090 FM222000 15015G25KT P6SM BKN040 TEMPO 2220/2301 P6SM -SHRA OVC030 BECMG 2223/2301 15005KT FM230100 15005KT P6SM SCT030 RMK FCST BASED ON AUTO OBS. NXT FCST BY 230000Z